sensor_id;sensor_type;location;lat;lon;timestamp;P1;durP1;ratioP1;P2;durP2;ratioP2
44046;SDS011;29713;-33.888;151.150;2023-05-23T00:02:18;8.50;;;2.40;;
44046;SDS011;29713;-33.888;151.150;2023-05-23T00:04:45;8.33;;;2.50;;
44046;SDS011;29713;-33.888;151.150;2023-05-23T00:07:13;9.93;;;2.60;;
44046;SDS011;29713;-33.888;151.150;2023-05-23T00:09:41;9.43;;;2.77;;
44046;SDS011;29713;-33.888;151.150;2023-05-23T00:12:08;11.07;;;3.10;;
44046;SDS011;29713;-33.888;151.150;2023-05-23T00:14:36;9.10;;;2.40;;
44046;SDS011;29713;-33.888;151.150;2023-05-23T00:17:04;7.83;;;2.30;;
44046;SDS011;29713;-33.888;151.150;2023-05-23T00:19:32;14.23;;;2.50;;
44046;SDS011;29713;-33.888;151.150;2023-05-23T00:22:00;6.78;;;2.13;;
44046;SDS011;29713;-33.888;151.150;2023-05-23T00:24:28;7.60;;;2.30;;
44046;SDS011;29713;-33.888;151.150;2023-05-23T00:26:56;10.30;;;2.67;;
44046;SDS011;29713;-33.888;151.150;2023-05-23T00:29:23;9.25;;;2.38;;
44046;SDS011;29713;-33.888;151.150;2023-05-23T00:31:50;6.72;;;2.10;;
44046;SDS011;29713;-33.888;151.150;2023-05-23T00:34:18;5.78;;;2.38;;
44046;SDS011;29713;-33.888;151.150;2023-05-23T00:36:45;6.70;;;2.83;;
44046;SDS011;29713;-33.888;151.150;2023-05-23T00:39:14;4.82;;;2.30;;
44046;SDS011;29713;-33.888;151.150;2023-05-23T00:41:45;7.32;;;1.98;;
44046;SDS011;29713;-33.888;151.150;2023-05-23T00:44:13;8.57;;;2.35;;
44046;SDS011;29713;-33.888;151.150;2023-05-23T00:46:42;5.10;;;2.22;;
44046;SDS011;29713;-33.888;151.150;2023-05-23T00:49:12;5.93;;;2.22;;
44046;SDS011;29713;-33.888;151.150;2023-05-23T00:51:39;5.53;;;1.98;;
44046;SDS011;29713;-33.888;151.150;2023-05-23T00:54:07;7.28;;;2.40;;
44046;SDS011;29713;-33.888;151.150;2023-05-23T00:56:35;6.28;;;2.72;;
44046;SDS011;29713;-33.888;151.150;2023-05-23T00:59:04;9.15;;;2.63;;
44046;SDS011;29713;-33.888;151.150;2023-05-23T01:01:31;6.68;;;2.15;;
44046;SDS011;29713;-33.888;151.150;2023-05-23T01:04:02;6.47;;;2.53;;
44046;SDS011;29713;-33.888;151.150;2023-05-23T01:06:29;6.57;;;2.58;;
44046;SDS011;29713;-33.888;151.150;2023-05-23T01:08:58;7.72;;;2.17;;
44046;SDS011;29713;-33.888;151.150;2023-05-23T01:11:31;7.78;;;2.15;;
44046;SDS011;29713;-33.888;151.150;2023-05-23T01:14:17;6.95;;;2.53;;
44046;SDS011;29713;-33.888;151.150;2023-05-23T01:16:52;4.07;;;1.63;;
44046;SDS011;29713;-33.888;151.150;2023-05-23T01:19:39;6.47;;;2.28;;
44046;SDS011;29713;-33.888;151.150;2023-05-23T01:22:23;8.40;;;2.40;;
44046;SDS011;29713;-33.888;151.150;2023-05-23T01:30:19;5.55;;;1.75;;
44046;SDS011;29713;-33.888;151.150;2023-05-23T01:32:49;8.10;;;1.83;;
44046;SDS011;29713;-33.888;151.150;2023-05-23T01:35:25;5.03;;;1.85;;
44046;SDS011;29713;-33.888;151.150;2023-05-23T01:37:54;6.25;;;1.98;;
44046;SDS011;29713;-33.888;151.150;2023-05-23T01:40:22;8.00;;;2.65;;
44046;SDS011;29713;-33.888;151.150;2023-05-23T01:42:50;6.78;;;2.20;;
44046;SDS011;29713;-33.888;151.150;2023-05-23T01:45:19;4.35;;;1.92;;
44046;SDS011;29713;-33.888;151.150;2023-05-23T01:47:49;5.82;;;1.90;;
44046;SDS011;29713;-33.888;151.150;2023-05-23T01:50:17;6.65;;;1.77;;
44046;SDS011;29713;-33.888;151.150;2023-05-23T01:52:45;5.90;;;2.20;;
44046;SDS011;29713;-33.888;151.150;2023-05-23T01:55:13;12.57;;;2.55;;
44046;SDS011;29713;-33.888;151.150;2023-05-23T01:57:49;8.25;;;2.28;;
44046;SDS011;29713;-33.888;151.150;2023-05-23T02:00:17;6.57;;;2.15;;
44046;SDS011;29713;-33.888;151.150;2023-05-23T02:02:45;3.78;;;1.80;;
44046;SDS011;29713;-33.888;151.150;2023-05-23T02:05:13;6.38;;;2.20;;
44046;SDS011;29713;-33.888;151.150;2023-05-23T02:07:40;7.25;;;2.10;;
44046;SDS011;29713;-33.888;151.150;2023-05-23T02:10:08;5.72;;;1.80;;
44046;SDS011;29713;-33.888;151.150;2023-05-23T02:12:35;6.40;;;1.98;;
44046;SDS011;29713;-33.888;151.150;2023-05-23T02:15:02;7.70;;;2.15;;
44046;SDS011;29713;-33.888;151.150;2023-05-23T02:17:30;4.47;;;1.95;;
44046;SDS011;29713;-33.888;151.150;2023-05-23T02:19:57;5.88;;;2.05;;
44046;SDS011;29713;-33.888;151.150;2023-05-23T02:22:25;6.38;;;2.05;;
44046;SDS011;29713;-33.888;151.150;2023-05-23T02:24:52;7.22;;;2.30;;
44046;SDS011;29713;-33.888;151.150;2023-05-23T02:27:19;7.68;;;2.00;;
44046;SDS011;29713;-33.888;151.150;2023-05-23T02:29:47;7.63;;;2.08;;
44046;SDS011;29713;-33.888;151.150;2023-05-23T02:32:14;7.10;;;1.85;;
44046;SDS011;29713;-33.888;151.150;2023-05-23T02:34:41;7.95;;;2.22;;
44046;SDS011;29713;-33.888;151.150;2023-05-23T02:37:12;4.25;;;1.67;;
44046;SDS011;29713;-33.888;151.150;2023-05-23T02:39:39;7.22;;;2.08;;
44046;SDS011;29713;-33.888;151.150;2023-05-23T02:42:08;4.13;;;1.85;;
44046;SDS011;29713;-33.888;151.150;2023-05-23T02:44:35;9.40;;;1.73;;
44046;SDS011;29713;-33.888;151.150;2023-05-23T02:47:02;5.93;;;1.80;;
44046;SDS011;29713;-33.888;151.150;2023-05-23T02:49:30;3.78;;;1.50;;
44046;SDS011;29713;-33.888;151.150;2023-05-23T02:51:57;6.53;;;1.77;;
44046;SDS011;29713;-33.888;151.150;2023-05-23T02:54:24;4.05;;;1.70;;
44046;SDS011;29713;-33.888;151.150;2023-05-23T02:56:52;5.90;;;1.90;;
44046;SDS011;29713;-33.888;151.150;2023-05-23T02:59:20;6.47;;;2.05;;
44046;SDS011;29713;-33.888;151.150;2023-05-23T03:01:47;7.38;;;2.28;;
44046;SDS011;29713;-33.888;151.150;2023-05-23T03:04:15;6.15;;;1.90;;
44046;SDS011;29713;-33.888;151.150;2023-05-23T03:06:43;5.25;;;1.88;;
44046;SDS011;29713;-33.888;151.150;2023-05-23T03:09:13;3.97;;;1.98;;
44046;SDS011;29713;-33.888;151.150;2023-05-23T03:11:43;5.75;;;2.50;;
44046;SDS011;29713;-33.888;151.150;2023-05-23T03:14:11;6.15;;;2.10;;
44046;SDS011;29713;-33.888;151.150;2023-05-23T03:16:38;5.70;;;1.90;;
44046;SDS011;29713;-33.888;151.150;2023-05-23T03:19:05;4.55;;;2.05;;
44046;SDS011;29713;-33.888;151.150;2023-05-23T03:21:33;5.78;;;1.95;;
44046;SDS011;29713;-33.888;151.150;2023-05-23T03:24:00;6.03;;;2.25;;
44046;SDS011;29713;-33.888;151.150;2023-05-23T03:26:28;5.50;;;1.90;;
44046;SDS011;29713;-33.888;151.150;2023-05-23T03:28:55;5.32;;;2.00;;
44046;SDS011;29713;-33.888;151.150;2023-05-23T03:31:22;3.88;;;1.67;;
44046;SDS011;29713;-33.888;151.150;2023-05-23T03:33:50;5.13;;;2.05;;
44046;SDS011;29713;-33.888;151.150;2023-05-23T03:36:18;6.18;;;2.00;;
44046;SDS011;29713;-33.888;151.150;2023-05-23T03:38:46;5.45;;;2.22;;
44046;SDS011;29713;-33.888;151.150;2023-05-23T03:41:13;4.32;;;1.80;;
44046;SDS011;29713;-33.888;151.150;2023-05-23T03:43:41;6.32;;;1.67;;
44046;SDS011;29713;-33.888;151.150;2023-05-23T03:46:08;6.70;;;2.13;;
44046;SDS011;29713;-33.888;151.150;2023-05-23T03:48:39;5.88;;;1.90;;
44046;SDS011;29713;-33.888;151.150;2023-05-23T03:51:06;5.32;;;2.05;;
44046;SDS011;29713;-33.888;151.150;2023-05-23T03:53:33;3.90;;;2.00;;
44046;SDS011;29713;-33.888;151.150;2023-05-23T03:56:01;5.22;;;1.75;;
44046;SDS011;29713;-33.888;151.150;2023-05-23T03:58:28;18.90;;;2.72;;
44046;SDS011;29713;-33.888;151.150;2023-05-23T04:00:55;7.78;;;2.20;;
44046;SDS011;29713;-33.888;151.150;2023-05-23T04:03:23;6.68;;;1.75;;
44046;SDS011;29713;-33.888;151.150;2023-05-23T04:05:51;6.93;;;2.08;;
44046;SDS011;29713;-33.888;151.150;2023-05-23T04:08:19;5.55;;;1.88;;
44046;SDS011;29713;-33.888;151.150;2023-05-23T04:10:46;5.88;;;1.77;;
44046;SDS011;29713;-33.888;151.150;2023-05-23T04:13:14;7.45;;;2.03;;
44046;SDS011;29713;-33.888;151.150;2023-05-23T04:15:42;5.35;;;1.75;;
44046;SDS011;29713;-33.888;151.150;2023-05-23T04:18:09;6.00;;;1.88;;
44046;SDS011;29713;-33.888;151.150;2023-05-23T04:20:36;5.53;;;1.73;;
44046;SDS011;29713;-33.888;151.150;2023-05-23T04:23:04;4.80;;;1.75;;
44046;SDS011;29713;-33.888;151.150;2023-05-23T04:25:31;4.00;;;1.45;;
44046;SDS011;29713;-33.888;151.150;2023-05-23T04:27:59;3.92;;;1.67;;
44046;SDS011;29713;-33.888;151.150;2023-05-23T04:30:26;8.35;;;2.30;;
44046;SDS011;29713;-33.888;151.150;2023-05-23T04:32:55;3.90;;;1.50;;
44046;SDS011;29713;-33.888;151.150;2023-05-23T04:35:25;7.03;;;1.83;;
44046;SDS011;29713;-33.888;151.150;2023-05-23T04:37:55;5.15;;;1.90;;
44046;SDS011;29713;-33.888;151.150;2023-05-23T04:40:22;7.05;;;2.00;;
44046;SDS011;29713;-33.888;151.150;2023-05-23T04:42:50;8.57;;;1.80;;
44046;SDS011;29713;-33.888;151.150;2023-05-23T04:45:17;8.63;;;2.17;;
44046;SDS011;29713;-33.888;151.150;2023-05-23T04:47:44;6.75;;;1.92;;
44046;SDS011;29713;-33.888;151.150;2023-05-23T04:50:12;7.80;;;2.22;;
44046;SDS011;29713;-33.888;151.150;2023-05-23T04:52:40;7.18;;;1.80;;
44046;SDS011;29713;-33.888;151.150;2023-05-23T04:55:07;7.90;;;2.28;;
44046;SDS011;29713;-33.888;151.150;2023-05-23T04:57:35;6.88;;;2.03;;
44046;SDS011;29713;-33.888;151.150;2023-05-23T05:00:03;4.80;;;1.73;;
44046;SDS011;29713;-33.888;151.150;2023-05-23T05:02:35;5.65;;;1.70;;
44046;SDS011;29713;-33.888;151.150;2023-05-23T05:05:02;2.35;;;1.40;;
44046;SDS011;29713;-33.888;151.150;2023-05-23T05:07:30;6.65;;;1.88;;
44046;SDS011;29713;-33.888;151.150;2023-05-23T05:10:00;5.45;;;1.60;;
44046;SDS011;29713;-33.888;151.150;2023-05-23T05:12:28;8.35;;;1.83;;
44046;SDS011;29713;-33.888;151.150;2023-05-23T05:14:55;8.18;;;2.40;;
44046;SDS011;29713;-33.888;151.150;2023-05-23T05:17:22;8.43;;;1.90;;
44046;SDS011;29713;-33.888;151.150;2023-05-23T05:19:50;5.97;;;1.73;;
44046;SDS011;29713;-33.888;151.150;2023-05-23T05:22:17;7.80;;;1.90;;
44046;SDS011;29713;-33.888;151.150;2023-05-23T05:24:44;7.30;;;1.75;;
44046;SDS011;29713;-33.888;151.150;2023-05-23T05:27:12;5.57;;;2.00;;
44046;SDS011;29713;-33.888;151.150;2023-05-23T05:29:39;7.50;;;1.70;;
44046;SDS011;29713;-33.888;151.150;2023-05-23T05:32:07;5.57;;;1.83;;
44046;SDS011;29713;-33.888;151.150;2023-05-23T05:34:34;7.57;;;1.95;;
44046;SDS011;29713;-33.888;151.150;2023-05-23T05:37:02;6.60;;;2.05;;
44046;SDS011;29713;-33.888;151.150;2023-05-23T05:39:29;4.93;;;1.63;;
44046;SDS011;29713;-33.888;151.150;2023-05-23T05:41:57;4.88;;;1.70;;
44046;SDS011;29713;-33.888;151.150;2023-05-23T05:44:25;11.23;;;2.40;;
44046;SDS011;29713;-33.888;151.150;2023-05-23T05:46:53;8.82;;;2.03;;
44046;SDS011;29713;-33.888;151.150;2023-05-23T05:49:20;9.82;;;2.40;;
44046;SDS011;29713;-33.888;151.150;2023-05-23T05:51:47;7.53;;;2.42;;
44046;SDS011;29713;-33.888;151.150;2023-05-23T05:54:16;5.68;;;1.95;;
44046;SDS011;29713;-33.888;151.150;2023-05-23T05:56:43;6.97;;;1.80;;
44046;SDS011;29713;-33.888;151.150;2023-05-23T05:59:11;8.18;;;1.90;;
44046;SDS011;29713;-33.888;151.150;2023-05-23T06:01:38;7.38;;;1.88;;
44046;SDS011;29713;-33.888;151.150;2023-05-23T06:04:06;4.75;;;1.92;;
44046;SDS011;29713;-33.888;151.150;2023-05-23T06:06:33;9.02;;;2.35;;
44046;SDS011;29713;-33.888;151.150;2023-05-23T06:09:00;9.63;;;2.75;;
44046;SDS011;29713;-33.888;151.150;2023-05-23T06:11:28;7.10;;;2.05;;
44046;SDS011;29713;-33.888;151.150;2023-05-23T06:13:55;11.98;;;2.63;;
44046;SDS011;29713;-33.888;151.150;2023-05-23T06:16:22;6.10;;;2.00;;
44046;SDS011;29713;-33.888;151.150;2023-05-23T06:18:50;8.57;;;2.33;;
44046;SDS011;29713;-33.888;151.150;2023-05-23T06:21:17;9.75;;;2.30;;
44046;SDS011;29713;-33.888;151.150;2023-05-23T06:23:45;7.15;;;2.10;;
44046;SDS011;29713;-33.888;151.150;2023-05-23T06:26:12;5.95;;;2.30;;
44046;SDS011;29713;-33.888;151.150;2023-05-23T06:28:39;8.00;;;2.70;;
44046;SDS011;29713;-33.888;151.150;2023-05-23T06:31:07;6.55;;;2.00;;
44046;SDS011;29713;-33.888;151.150;2023-05-23T06:33:34;8.65;;;2.35;;
44046;SDS011;29713;-33.888;151.150;2023-05-23T06:36:03;8.55;;;2.22;;
44046;SDS011;29713;-33.888;151.150;2023-05-23T06:38:31;10.13;;;2.65;;
44046;SDS011;29713;-33.888;151.150;2023-05-23T06:41:01;5.75;;;1.95;;
44046;SDS011;29713;-33.888;151.150;2023-05-23T06:43:31;6.00;;;2.08;;
44046;SDS011;29713;-33.888;151.150;2023-05-23T06:45:58;8.65;;;2.42;;
44046;SDS011;29713;-33.888;151.150;2023-05-23T06:48:26;6.13;;;2.00;;
44046;SDS011;29713;-33.888;151.150;2023-05-23T06:50:53;3.95;;;1.73;;
44046;SDS011;29713;-33.888;151.150;2023-05-23T06:53:20;13.15;;;2.42;;
44046;SDS011;29713;-33.888;151.150;2023-05-23T06:55:47;7.63;;;2.13;;
44046;SDS011;29713;-33.888;151.150;2023-05-23T06:58:15;9.40;;;2.47;;
44046;SDS011;29713;-33.888;151.150;2023-05-23T07:00:42;8.13;;;2.72;;
44046;SDS011;29713;-33.888;151.150;2023-05-23T07:03:10;11.48;;;2.50;;
44046;SDS011;29713;-33.888;151.150;2023-05-23T07:05:37;11.00;;;2.65;;
44046;SDS011;29713;-33.888;151.150;2023-05-23T07:08:04;9.35;;;2.28;;
44046;SDS011;29713;-33.888;151.150;2023-05-23T07:10:32;6.68;;;2.10;;
44046;SDS011;29713;-33.888;151.150;2023-05-23T07:12:59;5.57;;;2.13;;
44046;SDS011;29713;-33.888;151.150;2023-05-23T07:15:27;9.93;;;2.50;;
44046;SDS011;29713;-33.888;151.150;2023-05-23T07:17:54;7.88;;;2.53;;
44046;SDS011;29713;-33.888;151.150;2023-05-23T07:20:21;8.73;;;2.47;;
44046;SDS011;29713;-33.888;151.150;2023-05-23T07:22:49;10.20;;;3.15;;
44046;SDS011;29713;-33.888;151.150;2023-05-23T07:25:17;12.43;;;3.50;;
44046;SDS011;29713;-33.888;151.150;2023-05-23T07:27:44;13.13;;;4.20;;
44046;SDS011;29713;-33.888;151.150;2023-05-23T07:30:12;10.93;;;3.72;;
44046;SDS011;29713;-33.888;151.150;2023-05-23T07:32:41;10.52;;;3.63;;
44046;SDS011;29713;-33.888;151.150;2023-05-23T07:35:08;10.70;;;3.67;;
44046;SDS011;29713;-33.888;151.150;2023-05-23T07:37:35;11.57;;;3.83;;
44046;SDS011;29713;-33.888;151.150;2023-05-23T07:40:03;9.00;;;3.15;;
44046;SDS011;29713;-33.888;151.150;2023-05-23T07:42:31;7.63;;;3.00;;
44046;SDS011;29713;-33.888;151.150;2023-05-23T07:44:58;8.52;;;3.13;;
44046;SDS011;29713;-33.888;151.150;2023-05-23T07:47:26;10.37;;;3.23;;
44046;SDS011;29713;-33.888;151.150;2023-05-23T07:49:53;9.10;;;3.17;;
44046;SDS011;29713;-33.888;151.150;2023-05-23T07:52:21;12.15;;;3.58;;
44046;SDS011;29713;-33.888;151.150;2023-05-23T07:54:48;9.98;;;3.00;;
44046;SDS011;29713;-33.888;151.150;2023-05-23T07:57:15;21.40;;;10.10;;
44046;SDS011;29713;-33.888;151.150;2023-05-23T07:59:43;72.30;;;42.00;;
44046;SDS011;29713;-33.888;151.150;2023-05-23T08:02:10;27.63;;;16.38;;
44046;SDS011;29713;-33.888;151.150;2023-05-23T08:04:37;16.90;;;8.43;;
44046;SDS011;29713;-33.888;151.150;2023-05-23T08:07:04;15.87;;;6.20;;
44046;SDS011;29713;-33.888;151.150;2023-05-23T08:09:34;13.27;;;6.33;;
44046;SDS011;29713;-33.888;151.150;2023-05-23T08:12:02;16.13;;;6.10;;
44046;SDS011;29713;-33.888;151.150;2023-05-23T08:14:30;18.80;;;6.03;;
44046;SDS011;29713;-33.888;151.150;2023-05-23T08:16:58;23.57;;;17.73;;
44046;SDS011;29713;-33.888;151.150;2023-05-23T08:19:28;13.73;;;9.00;;
44046;SDS011;29713;-33.888;151.150;2023-05-23T08:21:55;13.37;;;6.97;;
44046;SDS011;29713;-33.888;151.150;2023-05-23T08:24:22;14.30;;;6.40;;
44046;SDS011;29713;-33.888;151.150;2023-05-23T08:26:50;14.77;;;7.03;;
44046;SDS011;29713;-33.888;151.150;2023-05-23T08:29:20;14.80;;;7.23;;
44046;SDS011;29713;-33.888;151.150;2023-05-23T08:31:48;15.67;;;7.43;;
44046;SDS011;29713;-33.888;151.150;2023-05-23T08:34:15;15.47;;;7.43;;
44046;SDS011;29713;-33.888;151.150;2023-05-23T08:36:42;23.73;;;8.27;;
44046;SDS011;29713;-33.888;151.150;2023-05-23T08:39:09;18.07;;;7.73;;
44046;SDS011;29713;-33.888;151.150;2023-05-23T08:41:37;13.20;;;6.53;;
44046;SDS011;29713;-33.888;151.150;2023-05-23T08:44:05;13.10;;;5.83;;
44046;SDS011;29713;-33.888;151.150;2023-05-23T08:46:32;11.07;;;5.17;;
44046;SDS011;29713;-33.888;151.150;2023-05-23T08:49:04;19.27;;;5.73;;
44046;SDS011;29713;-33.888;151.150;2023-05-23T08:51:32;14.37;;;4.57;;
44046;SDS011;29713;-33.888;151.150;2023-05-23T08:54:03;11.17;;;4.97;;
44046;SDS011;29713;-33.888;151.150;2023-05-23T08:56:34;11.80;;;5.03;;
44046;SDS011;29713;-33.888;151.150;2023-05-23T08:59:03;13.73;;;5.13;;
44046;SDS011;29713;-33.888;151.150;2023-05-23T09:01:31;12.50;;;4.93;;
44046;SDS011;29713;-33.888;151.150;2023-05-23T09:03:59;10.33;;;4.57;;
44046;SDS011;29713;-33.888;151.150;2023-05-23T09:06:29;13.37;;;4.60;;
44046;SDS011;29713;-33.888;151.150;2023-05-23T09:08:59;12.70;;;5.03;;
44046;SDS011;29713;-33.888;151.150;2023-05-23T09:11:27;10.80;;;4.67;;
44046;SDS011;29713;-33.888;151.150;2023-05-23T09:13:55;9.93;;;4.70;;
44046;SDS011;29713;-33.888;151.150;2023-05-23T09:16:23;13.93;;;5.30;;
44046;SDS011;29713;-33.888;151.150;2023-05-23T09:18:59;10.70;;;5.03;;
44046;SDS011;29713;-33.888;151.150;2023-05-23T09:21:36;12.17;;;5.03;;
44046;SDS011;29713;-33.888;151.150;2023-05-23T09:24:07;12.13;;;5.00;;
44046;SDS011;29713;-33.888;151.150;2023-05-23T09:26:35;11.03;;;4.93;;
44046;SDS011;29713;-33.888;151.150;2023-05-23T09:29:06;14.93;;;5.40;;
44046;SDS011;29713;-33.888;151.150;2023-05-23T09:31:33;15.23;;;5.90;;
44046;SDS011;29713;-33.888;151.150;2023-05-23T09:34:04;12.27;;;5.40;;
44046;SDS011;29713;-33.888;151.150;2023-05-23T09:36:32;13.07;;;4.80;;
44046;SDS011;29713;-33.888;151.150;2023-05-23T09:39:03;14.60;;;4.57;;
44046;SDS011;29713;-33.888;151.150;2023-05-23T09:41:33;9.87;;;3.97;;
44046;SDS011;29713;-33.888;151.150;2023-05-23T09:44:04;13.03;;;4.90;;
44046;SDS011;29713;-33.888;151.150;2023-05-23T09:46:34;15.63;;;7.07;;
44046;SDS011;29713;-33.888;151.150;2023-05-23T09:49:14;20.37;;;6.33;;
44046;SDS011;29713;-33.888;151.150;2023-05-23T09:51:42;15.73;;;5.47;;
44046;SDS011;29713;-33.888;151.150;2023-05-23T09:54:21;14.20;;;5.47;;
44046;SDS011;29713;-33.888;151.150;2023-05-23T09:56:49;22.00;;;11.33;;
44046;SDS011;29713;-33.888;151.150;2023-05-23T09:59:20;20.30;;;7.50;;
44046;SDS011;29713;-33.888;151.150;2023-05-23T10:01:51;13.37;;;7.00;;
44046;SDS011;29713;-33.888;151.150;2023-05-23T10:04:22;16.90;;;7.17;;
44046;SDS011;29713;-33.888;151.150;2023-05-23T10:06:56;19.70;;;9.80;;
44046;SDS011;29713;-33.888;151.150;2023-05-23T10:09:32;26.77;;;15.47;;
44046;SDS011;29713;-33.888;151.150;2023-05-23T10:14:56;23.90;;;12.90;;
44046;SDS011;29713;-33.888;151.150;2023-05-23T10:20:17;21.33;;;10.90;;
44046;SDS011;29713;-33.888;151.150;2023-05-23T10:22:49;24.57;;;10.93;;
44046;SDS011;29713;-33.888;151.150;2023-05-23T10:25:16;21.87;;;9.97;;
44046;SDS011;29713;-33.888;151.150;2023-05-23T10:27:44;24.27;;;11.03;;
44046;SDS011;29713;-33.888;151.150;2023-05-23T10:30:15;26.00;;;10.73;;
44046;SDS011;29713;-33.888;151.150;2023-05-23T10:32:42;20.47;;;9.77;;
44046;SDS011;29713;-33.888;151.150;2023-05-23T10:41:05;16.57;;;9.10;;
44046;SDS011;29713;-33.888;151.150;2023-05-23T10:46:20;27.30;;;14.37;;
44046;SDS011;29713;-33.888;151.150;2023-05-23T10:48:51;26.57;;;13.97;;
44046;SDS011;29713;-33.888;151.150;2023-05-23T10:51:26;20.60;;;12.03;;
44046;SDS011;29713;-33.888;151.150;2023-05-23T10:54:09;23.13;;;11.70;;
44046;SDS011;29713;-33.888;151.150;2023-05-23T10:56:36;29.00;;;15.50;;
44046;SDS011;29713;-33.888;151.150;2023-05-23T10:59:04;28.03;;;15.63;;
44046;SDS011;29713;-33.888;151.150;2023-05-23T11:01:32;28.73;;;15.33;;
44046;SDS011;29713;-33.888;151.150;2023-05-23T11:04:05;28.13;;;13.37;;
44046;SDS011;29713;-33.888;151.150;2023-05-23T11:06:42;24.10;;;13.77;;
44046;SDS011;29713;-33.888;151.150;2023-05-23T11:09:13;26.57;;;14.30;;
44046;SDS011;29713;-33.888;151.150;2023-05-23T11:12:06;24.13;;;12.63;;
44046;SDS011;29713;-33.888;151.150;2023-05-23T11:14:40;26.00;;;13.93;;
44046;SDS011;29713;-33.888;151.150;2023-05-23T11:17:30;24.03;;;14.33;;
44046;SDS011;29713;-33.888;151.150;2023-05-23T11:20:00;26.53;;;13.73;;
44046;SDS011;29713;-33.888;151.150;2023-05-23T11:22:32;21.60;;;12.90;;
44046;SDS011;29713;-33.888;151.150;2023-05-23T11:25:08;26.07;;;13.13;;
44046;SDS011;29713;-33.888;151.150;2023-05-23T11:27:39;55.87;;;28.43;;
44046;SDS011;29713;-33.888;151.150;2023-05-23T11:30:10;39.83;;;20.80;;
44046;SDS011;29713;-33.888;151.150;2023-05-23T11:32:40;38.00;;;19.07;;
44046;SDS011;29713;-33.888;151.150;2023-05-23T11:35:08;29.83;;;14.50;;
44046;SDS011;29713;-33.888;151.150;2023-05-23T11:37:39;23.67;;;12.57;;
44046;SDS011;29713;-33.888;151.150;2023-05-23T11:42:56;23.50;;;11.20;;
44046;SDS011;29713;-33.888;151.150;2023-05-23T11:45:25;23.47;;;10.70;;
44046;SDS011;29713;-33.888;151.150;2023-05-23T11:47:53;20.87;;;9.93;;
44046;SDS011;29713;-33.888;151.150;2023-05-23T11:50:20;22.60;;;10.20;;
44046;SDS011;29713;-33.888;151.150;2023-05-23T11:52:49;17.27;;;9.23;;
44046;SDS011;29713;-33.888;151.150;2023-05-23T11:55:17;20.57;;;9.60;;
44046;SDS011;29713;-33.888;151.150;2023-05-23T11:57:46;19.73;;;9.50;;
44046;SDS011;29713;-33.888;151.150;2023-05-23T12:00:14;17.03;;;9.17;;
44046;SDS011;29713;-33.888;151.150;2023-05-23T12:02:46;17.17;;;8.53;;
44046;SDS011;29713;-33.888;151.150;2023-05-23T12:05:14;19.30;;;9.40;;
44046;SDS011;29713;-33.888;151.150;2023-05-23T12:07:45;18.80;;;9.17;;
44046;SDS011;29713;-33.888;151.150;2023-05-23T12:10:14;16.67;;;8.50;;
44046;SDS011;29713;-33.888;151.150;2023-05-23T12:12:42;16.40;;;8.63;;
44046;SDS011;29713;-33.888;151.150;2023-05-23T12:15:10;22.00;;;9.90;;
44046;SDS011;29713;-33.888;151.150;2023-05-23T12:17:39;19.17;;;9.07;;
44046;SDS011;29713;-33.888;151.150;2023-05-23T12:20:11;31.80;;;11.73;;
44046;SDS011;29713;-33.888;151.150;2023-05-23T12:22:39;25.80;;;11.03;;
44046;SDS011;29713;-33.888;151.150;2023-05-23T12:25:07;27.33;;;11.13;;
44046;SDS011;29713;-33.888;151.150;2023-05-23T12:27:35;24.13;;;11.40;;
44046;SDS011;29713;-33.888;151.150;2023-05-23T12:30:05;25.27;;;10.20;;
44046;SDS011;29713;-33.888;151.150;2023-05-23T12:32:38;17.60;;;9.17;;
44046;SDS011;29713;-33.888;151.150;2023-05-23T12:35:07;16.70;;;8.77;;
44046;SDS011;29713;-33.888;151.150;2023-05-23T12:37:43;22.63;;;9.33;;
44046;SDS011;29713;-33.888;151.150;2023-05-23T12:40:14;15.57;;;8.50;;
44046;SDS011;29713;-33.888;151.150;2023-05-23T12:42:43;19.73;;;8.70;;
44046;SDS011;29713;-33.888;151.150;2023-05-23T12:45:32;17.13;;;8.20;;
44046;SDS011;29713;-33.888;151.150;2023-05-23T12:48:04;19.40;;;7.57;;
44046;SDS011;29713;-33.888;151.150;2023-05-23T12:50:32;18.53;;;7.30;;
44046;SDS011;29713;-33.888;151.150;2023-05-23T12:53:00;15.40;;;7.87;;
44046;SDS011;29713;-33.888;151.150;2023-05-23T12:55:28;16.47;;;7.93;;
44046;SDS011;29713;-33.888;151.150;2023-05-23T12:57:55;18.33;;;8.50;;
44046;SDS011;29713;-33.888;151.150;2023-05-23T13:00:22;17.73;;;10.77;;
44046;SDS011;29713;-33.888;151.150;2023-05-23T13:02:50;18.70;;;9.13;;
44046;SDS011;29713;-33.888;151.150;2023-05-23T13:05:17;18.57;;;9.87;;
44046;SDS011;29713;-33.888;151.150;2023-05-23T13:07:45;16.33;;;8.90;;
44046;SDS011;29713;-33.888;151.150;2023-05-23T13:10:12;18.90;;;9.03;;
44046;SDS011;29713;-33.888;151.150;2023-05-23T13:12:40;17.97;;;9.37;;
44046;SDS011;29713;-33.888;151.150;2023-05-23T13:15:08;20.07;;;8.43;;
44046;SDS011;29713;-33.888;151.150;2023-05-23T13:17:36;18.87;;;7.87;;
44046;SDS011;29713;-33.888;151.150;2023-05-23T13:20:03;13.77;;;8.30;;
44046;SDS011;29713;-33.888;151.150;2023-05-23T13:22:31;17.50;;;8.50;;
44046;SDS011;29713;-33.888;151.150;2023-05-23T13:24:59;24.33;;;7.67;;
44046;SDS011;29713;-33.888;151.150;2023-05-23T13:27:26;25.63;;;7.77;;
44046;SDS011;29713;-33.888;151.150;2023-05-23T13:29:54;16.13;;;7.83;;
44046;SDS011;29713;-33.888;151.150;2023-05-23T13:32:21;16.53;;;7.17;;
44046;SDS011;29713;-33.888;151.150;2023-05-23T13:34:48;17.47;;;7.67;;
44046;SDS011;29713;-33.888;151.150;2023-05-23T13:37:16;15.70;;;7.37;;
44046;SDS011;29713;-33.888;151.150;2023-05-23T13:39:43;20.43;;;8.53;;
44046;SDS011;29713;-33.888;151.150;2023-05-23T13:42:10;20.80;;;8.80;;
44046;SDS011;29713;-33.888;151.150;2023-05-23T13:44:38;22.30;;;9.83;;
44046;SDS011;29713;-33.888;151.150;2023-05-23T13:47:14;19.07;;;8.07;;
44046;SDS011;29713;-33.888;151.150;2023-05-23T13:49:41;14.57;;;7.67;;
44046;SDS011;29713;-33.888;151.150;2023-05-23T13:52:11;16.50;;;8.00;;
44046;SDS011;29713;-33.888;151.150;2023-05-23T13:54:38;19.30;;;7.93;;
44046;SDS011;29713;-33.888;151.150;2023-05-23T13:57:06;17.83;;;8.40;;
44046;SDS011;29713;-33.888;151.150;2023-05-23T13:59:33;19.10;;;8.50;;
44046;SDS011;29713;-33.888;151.150;2023-05-23T14:02:00;20.93;;;8.30;;
44046;SDS011;29713;-33.888;151.150;2023-05-23T14:04:28;16.53;;;7.60;;
44046;SDS011;29713;-33.888;151.150;2023-05-23T14:06:55;23.30;;;9.27;;
44046;SDS011;29713;-33.888;151.150;2023-05-23T14:09:22;18.73;;;8.87;;
44046;SDS011;29713;-33.888;151.150;2023-05-23T14:11:50;21.60;;;8.90;;
44046;SDS011;29713;-33.888;151.150;2023-05-23T14:14:17;19.17;;;8.33;;
44046;SDS011;29713;-33.888;151.150;2023-05-23T14:16:44;19.43;;;9.30;;
44046;SDS011;29713;-33.888;151.150;2023-05-23T14:19:12;25.07;;;9.60;;
44046;SDS011;29713;-33.888;151.150;2023-05-23T14:21:39;20.20;;;9.57;;
44046;SDS011;29713;-33.888;151.150;2023-05-23T14:24:06;17.37;;;8.93;;
44046;SDS011;29713;-33.888;151.150;2023-05-23T14:26:34;20.53;;;9.43;;
44046;SDS011;29713;-33.888;151.150;2023-05-23T14:29:01;20.40;;;9.87;;
44046;SDS011;29713;-33.888;151.150;2023-05-23T14:31:29;20.40;;;9.20;;
44046;SDS011;29713;-33.888;151.150;2023-05-23T14:33:56;20.90;;;9.20;;